createdAt,value
2019-01-03T00:00:56.214Z,83.44
2019-01-03T00:04:05.121Z,83.50
2019-01-03T00:07:13.647Z,83.86
2019-01-03T00:10:22.433Z,83.98
2019-01-03T00:13:33.092Z,84.24
2019-01-03T00:17:42.010Z,85.23
2019-01-03T00:22:58.834Z,85.79
2019-01-03T00:26:13.678Z,85.47
2019-01-03T00:31:28.077Z,85.60
2019-01-03T00:35:40.640Z,85.57
2019-01-03T00:38:49.480Z,85.60
2019-01-03T00:44:02.250Z,85.44
2019-01-03T00:47:17.807Z,85.02
2019-01-03T00:51:25.348Z,84.46
2019-01-03T00:54:32.862Z,84.17
2019-01-03T00:57:49.445Z,84.29
2019-01-03T01:01:32.512Z,84.64
2019-01-03T01:05:40.819Z,84.48
2019-01-03T01:08:49.484Z,84.83
2019-01-03T01:11:58.259Z,84.71
2019-01-03T01:15:07.139Z,85.05
2019-01-03T01:18:20.565Z,84.80
2019-01-03T01:22:03.883Z,84.27
2019-01-03T01:25:13.497Z,84.00
2019-01-03T01:28:28.128Z,83.96
2019-01-03T01:31:42.624Z,83.70
2019-01-03T01:37:00.810Z,83.20
2019-01-03T01:41:14.970Z,82.20
2019-01-03T01:45:21.486Z,83.43
2019-01-03T01:48:30.251Z,83.40
2019-01-03T01:51:42.725Z,83.62
2019-01-03T01:54:51.677Z,83.38
2019-01-03T01:59:01.168Z,83.94
2019-01-03T02:04:12.223Z,84.21
2019-01-03T02:07:26.933Z,84.69
2019-01-03T02:10:35.708Z,84.50
2019-01-03T02:13:44.530Z,84.19
2019-01-03T02:17:10.568Z,83.33
2019-01-03T02:20:19.335Z,82.25
2019-01-03T02:23:28.061Z,81.80
2019-01-03T02:26:38.820Z,82.81
2019-01-03T02:29:47.697Z,84.14
2019-01-03T02:32:56.653Z,84.20
2019-01-03T02:36:04.349Z,84.08
2019-01-03T02:39:28.295Z,83.90
2019-01-03T02:42:37.012Z,82.79
2019-01-03T02:45:45.667Z,82.48
2019-01-03T02:48:55.242Z,81.56
2019-01-03T02:52:02.994Z,81.79
2019-01-03T02:55:14.657Z,82.03
2019-01-03T02:58:29.383Z,82.02
2019-01-03T03:01:53.267Z,82.54
2019-01-03T03:05:02.195Z,83.82
2019-01-03T03:08:11.127Z,84.43
2019-01-03T03:12:22.930Z,83.54
2019-01-03T03:15:31.706Z,85.10
2019-01-03T03:18:44.319Z,84.93
2019-01-03T03:23:59.458Z,84.36
2019-01-03T03:27:11.113Z,83.05
2019-01-03T03:30:18.826Z,83.16
2019-01-03T03:33:27.871Z,84.07
2019-01-03T03:36:42.543Z,84.56
2019-01-03T03:40:51.489Z,85.93
2019-01-03T03:44:32.638Z,86.20
2019-01-03T03:47:41.408Z,86.84
2019-01-03T03:51:05.194Z,86.98
2019-01-03T03:54:19.980Z,86.61
2019-01-03T03:57:30.523Z,85.44
2019-01-03T04:00:39.355Z,87.82
2019-01-03T04:03:48.269Z,87.92
2019-01-03T04:07:08.991Z,87.50
2019-01-03T04:10:17.975Z,86.59
2019-01-03T04:13:26.948Z,88.35
2019-01-03T04:17:07.856Z,87.50
2019-01-03T04:21:20.487Z,86.17
2019-01-03T04:24:28.979Z,86.63
2019-01-03T04:27:53.674Z,85.85
2019-01-03T04:31:02.574Z,86.60
2019-01-03T04:36:18.194Z,86.90
2019-01-03T04:41:32.771Z,86.68
2019-01-03T04:44:42.676Z,86.88
2019-01-03T04:47:51.982Z,86.42
2019-01-03T04:51:00.855Z,85.31
2019-01-03T04:54:16.442Z,86.42
2019-01-03T04:57:25.340Z,87.43
2019-01-03T05:01:31.935Z,86.33
2019-01-03T05:04:42.618Z,87.40
2019-01-03T05:07:57.237Z,87.04
2019-01-03T05:11:06.035Z,86.88
2019-01-03T05:15:13.673Z,87.02
2019-01-03T05:19:21.533Z,87.63
2019-01-03T05:22:30.094Z,87.46
2019-01-03T05:25:39.005Z,87.56
2019-01-03T05:28:47.866Z,86.49
2019-01-03T05:32:57.587Z,85.99
2019-01-03T05:37:08.114Z,85.93
2019-01-03T05:41:17.555Z,86.44
2019-01-03T05:44:26.335Z,86.52
2019-01-03T05:47:35.985Z,86.96
2019-01-03T05:50:44.747Z,86.29
2019-01-03T05:53:55.347Z,86.94
2019-01-03T05:57:05.130Z,87.46
2019-01-03T06:01:12.882Z,87.13
2019-01-03T06:04:21.658Z,86.92
2019-01-03T06:08:00.701Z,86.37
2019-01-03T06:11:09.460Z,86.80
2019-01-03T06:15:16.979Z,86.06
2019-01-03T06:18:32.511Z,85.56
2019-01-03T06:21:41.376Z,85.50
2019-01-03T06:24:50.225Z,85.78
2019-01-03T06:30:03.930Z,86.00
2019-01-03T06:33:12.940Z,85.90
2019-01-03T06:36:21.675Z,86.08
2019-01-03T06:39:29.333Z,85.97
2019-01-03T06:42:39.817Z,86.07
2019-01-03T06:45:47.550Z,85.34
2019-01-03T06:50:59.463Z,85.36
2019-01-03T06:55:12.957Z,86.44
2019-01-03T06:58:21.729Z,85.74
2019-01-03T07:01:31.318Z,85.87
2019-01-03T07:05:37.834Z,86.39
2019-01-03T07:08:52.425Z,85.90
2019-01-03T07:12:01.242Z,86.77
2019-01-03T07:15:10.310Z,85.97
2019-01-03T07:18:19.237Z,87.00
2019-01-03T07:22:33.212Z,86.65
2019-01-03T07:26:43.633Z,86.86
2019-01-03T07:29:56.270Z,86.60
2019-01-03T07:33:05.456Z,87.27
2019-01-03T07:36:14.263Z,86.74
2019-01-03T07:39:27.826Z,87.68
2019-01-03T07:43:37.284Z,87.04
2019-01-03T07:46:47.325Z,87.43
2019-01-03T07:49:55.002Z,87.70
2019-01-03T07:53:06.783Z,88.01
2019-01-03T07:56:14.501Z,88.28
2019-01-03T07:59:23.246Z,88.61
2019-01-03T08:02:32.048Z,87.66
2019-01-03T08:05:41.173Z,88.48
2019-01-03T08:08:50.043Z,88.64
2019-01-03T08:13:00.512Z,88.79
2019-01-03T08:16:19.276Z,89.51
2019-01-03T08:19:29.007Z,88.76
2019-01-03T08:22:37.749Z,89.13
2019-01-03T08:25:47.595Z,89.03
2019-01-03T08:29:59.233Z,88.01
2019-01-03T08:33:11.716Z,89.05
2019-01-03T08:36:20.516Z,89.59
2019-01-03T08:39:30.058Z,90.11
2019-01-03T08:42:38.661Z,90.65
2019-01-03T08:46:01.821Z,89.42
2019-01-03T08:50:13.770Z,90.31
2019-01-03T08:55:30.865Z,90.49
2019-01-03T09:00:43.822Z,89.43
2019-01-03T09:04:50.530Z,89.28
2019-01-03T09:08:11.562Z,89.56
2019-01-03T09:11:20.458Z,89.26
2019-01-03T09:14:29.407Z,89.90
2019-01-03T09:17:38.218Z,89.60
2019-01-03T09:20:53.884Z,89.86
2019-01-03T09:24:03.074Z,89.83
2019-01-03T09:29:15.195Z,89.73
2019-01-03T09:33:25.922Z,90.36
2019-01-03T09:36:36.556Z,90.58
2019-01-03T09:39:51.380Z,91.11
2019-01-03T09:44:02.159Z,90.78
2019-01-03T09:47:05.829Z,89.87
2019-01-03T09:50:09.403Z,89.72
2019-01-03T09:53:13.040Z,89.80
2019-01-03T09:56:16.687Z,89.55
2019-01-03T09:59:20.290Z,90.17
2019-01-03T10:02:23.829Z,89.37
2019-01-03T10:05:27.461Z,90.41
2019-01-03T10:08:30.999Z,89.50
2019-01-03T10:11:34.729Z,89.29
2019-01-03T10:14:38.426Z,89.04
2019-01-03T10:17:42.023Z,89.68
2019-01-03T10:20:45.783Z,89.70
2019-01-03T10:23:49.254Z,90.72
2019-01-03T10:26:52.802Z,89.90
2019-01-03T10:29:56.564Z,90.41
2019-01-03T10:33:00.140Z,90.21
2019-01-03T10:36:03.782Z,90.62
2019-01-03T10:39:08.482Z,90.21
2019-01-03T10:42:12.312Z,89.80
2019-01-03T10:45:15.898Z,90.03
2019-01-03T10:48:19.364Z,90.29
2019-01-03T10:51:22.828Z,90.24
2019-01-03T10:54:26.484Z,90.79
2019-01-03T10:57:30.023Z,90.11
2019-01-03T11:00:33.681Z,91.18
2019-01-03T11:03:37.243Z,90.83
2019-01-03T11:06:40.914Z,90.30
2019-01-03T11:09:44.391Z,90.29
2019-01-03T11:12:47.938Z,89.82
2019-01-03T11:15:51.596Z,90.65
2019-01-03T11:18:55.274Z,91.06
2019-01-03T11:21:58.825Z,91.20
2019-01-03T11:25:02.341Z,90.56
2019-01-03T11:28:05.916Z,91.58
2019-01-03T11:31:09.633Z,91.35
2019-01-03T11:34:13.139Z,91.24
2019-01-03T11:37:16.803Z,90.94
2019-01-03T11:40:20.501Z,91.25
2019-01-03T11:43:24.448Z,91.79
2019-01-03T11:46:28.067Z,90.63
2019-01-03T11:49:31.709Z,92.01
2019-01-03T11:52:35.377Z,91.34
2019-01-03T11:55:39.232Z,91.77
2019-01-03T11:58:42.723Z,92.17
2019-01-03T12:01:46.389Z,92.99
2019-01-03T12:04:49.916Z,93.11
2019-01-03T12:07:53.407Z,94.37
2019-01-03T12:10:57.049Z,95.39
2019-01-03T12:14:00.497Z,95.95
2019-01-03T12:17:05.091Z,96.19
2019-01-03T12:20:08.748Z,96.83
2019-01-03T12:23:12.371Z,95.92
2019-01-03T12:26:16.019Z,95.66
2019-01-03T12:29:19.578Z,97.42
2019-01-03T12:32:23.388Z,98.69
2019-01-03T12:35:26.986Z,98.21
2019-01-03T12:38:30.547Z,98.17
2019-01-03T12:41:34.195Z,97.47
2019-01-03T12:44:37.854Z,98.84
2019-01-03T12:47:41.460Z,97.60
2019-01-03T12:50:45.204Z,98.09
2019-01-03T12:53:48.928Z,99.22
2019-01-03T12:56:52.572Z,99.07
2019-01-03T12:59:56.127Z,97.56
2019-01-03T13:02:59.703Z,98.50
2019-01-03T13:06:03.414Z,99.42
2019-01-03T13:09:12.730Z,99.66
2019-01-03T13:12:19.583Z,99.26
2019-01-03T13:15:26.004Z,97.75
2019-01-03T13:18:31.691Z,98.84
2019-01-03T13:21:35.410Z,98.33
2019-01-03T13:24:38.972Z,98.64
2019-01-03T13:27:42.621Z,99.64
2019-01-03T13:30:50.458Z,99.99
2019-01-03T13:33:54.828Z,100.00
2019-01-03T13:36:58.331Z,100.00
2019-01-03T13:40:02.345Z,100.00
2019-01-03T13:43:06.070Z,100.00
2019-01-03T13:46:09.711Z,100.00
2019-01-03T13:49:13.265Z,100.00
2019-01-03T13:52:16.722Z,100.00
2019-01-03T13:55:20.149Z,100.00
2019-01-03T13:58:23.590Z,100.00
2019-01-03T14:01:28.113Z,100.00
2019-01-03T14:04:53.803Z,100.00
2019-01-03T14:11:52.284Z,100.00
2019-01-03T14:15:13.285Z,100.00
2019-01-03T14:18:37.418Z,100.00
2019-01-03T14:21:57.834Z,100.00
2019-01-03T14:25:24.706Z,100.00
2019-01-03T14:28:48.382Z,100.00
2019-01-03T14:32:06.738Z,100.00
2019-01-03T14:35:23.891Z,100.00
2019-01-03T14:38:40.446Z,100.00
2019-01-03T14:41:58.203Z,100.00
2019-01-03T14:45:24.317Z,100.00
2019-01-03T14:48:46.666Z,100.00
2019-01-03T14:52:15.310Z,100.00
2019-01-03T14:55:41.347Z,100.00
2019-01-03T14:59:04.859Z,100.00
2019-01-03T15:02:17.469Z,100.00
2019-01-03T15:05:50.105Z,100.00
2019-01-03T15:09:11.521Z,100.00
2019-01-03T15:12:22.859Z,100.00
2019-01-03T15:15:40.562Z,100.00
2019-01-03T15:19:02.381Z,100.00
2019-01-03T15:22:13.972Z,100.00
2019-01-03T15:29:49.723Z,100.00
2019-01-03T15:33:06.280Z,100.00
2019-01-03T15:36:18.997Z,100.00
2019-01-03T15:39:38.155Z,100.00
2019-01-03T15:42:52.584Z,100.00
2019-01-03T15:49:23.651Z,100.00
2019-01-03T15:53:11.137Z,100.00
2019-01-03T15:56:24.111Z,100.00
2019-01-03T15:59:41.579Z,100.00
2019-01-03T16:06:27.789Z,100.00
2019-01-03T16:09:52.827Z,100.00
2019-01-03T16:13:10.310Z,100.00
2019-01-03T16:16:38.339Z,100.00
2019-01-03T16:19:52.273Z,100.00
2019-01-03T16:23:11.445Z,100.00
2019-01-03T16:26:34.978Z,100.00
2019-01-03T16:30:08.005Z,100.00
2019-01-03T16:33:23.394Z,100.00
2019-01-03T16:36:36.103Z,100.00
2019-01-03T16:39:59.243Z,100.00
2019-01-03T16:43:16.381Z,100.00
2019-01-03T16:46:47.924Z,100.00
2019-01-03T16:50:35.258Z,100.00
2019-01-03T16:59:50.190Z,100.00
2019-01-03T17:27:55.606Z,99.85
2019-01-03T17:31:26.415Z,100.00
2019-01-03T17:34:53.362Z,100.00
2019-01-03T17:38:16.770Z,100.00
2019-01-03T17:41:51.890Z,100.00
2019-01-03T17:45:07.053Z,99.85
2019-01-03T17:52:14.095Z,99.64
2019-01-03T17:55:40.459Z,99.61
2019-01-03T17:59:19.893Z,100.00
2019-01-03T18:08:00.339Z,100.00
2019-01-03T18:11:15.711Z,100.00
2019-01-03T18:15:17.594Z,100.00
2019-01-03T18:26:03.534Z,100.00
2019-01-03T18:30:06.444Z,100.00
2019-01-03T18:41:27.848Z,100.00
2019-01-03T18:44:54.156Z,100.00
2019-01-03T18:48:45.138Z,100.00
2019-01-03T18:52:34.249Z,100.00
2019-01-03T18:56:36.432Z,100.00
2019-01-03T18:59:53.856Z,100.00
2019-01-03T19:03:12.273Z,100.00
2019-01-03T19:06:18.334Z,100.00
2019-01-03T19:09:21.854Z,100.00
2019-01-03T19:12:25.397Z,100.00
2019-01-03T19:15:28.898Z,100.00
2019-01-03T19:18:32.457Z,100.00
2019-01-03T19:21:36.041Z,100.00
2019-01-03T19:24:40.156Z,100.00
2019-01-03T19:27:43.738Z,100.00
2019-01-03T19:30:47.489Z,100.00
2019-01-03T19:33:50.984Z,100.00
2019-01-03T19:36:54.592Z,100.00
2019-01-03T19:39:58.225Z,100.00
2019-01-03T19:43:01.677Z,100.00
2019-01-03T19:46:05.275Z,100.00
2019-01-03T19:49:08.899Z,100.00
2019-01-03T19:52:12.501Z,100.00
2019-01-03T19:55:16.081Z,100.00
2019-01-03T19:58:19.609Z,100.00
2019-01-03T20:01:23.167Z,100.00
2019-01-03T20:04:26.693Z,100.00
2019-01-03T20:07:31.333Z,100.00
2019-01-03T20:10:34.956Z,100.00
2019-01-03T20:13:38.494Z,100.00
2019-01-03T20:16:42.065Z,100.00
2019-01-03T20:19:45.864Z,100.00
2019-01-03T20:22:49.869Z,100.00
2019-01-03T20:25:53.408Z,100.00
2019-01-03T20:28:57.014Z,100.00
2019-01-03T20:32:00.553Z,100.00
2019-01-03T20:35:04.145Z,100.00
2019-01-03T20:38:09.133Z,100.00
2019-01-03T20:41:13.466Z,100.00
2019-01-03T20:44:16.242Z,100.00
2019-01-03T20:47:20.113Z,100.00
2019-01-03T20:50:23.687Z,100.00
2019-01-03T20:53:27.261Z,100.00
2019-01-03T20:56:30.869Z,100.00
2019-01-03T20:59:34.362Z,100.00
2019-01-03T21:02:38.857Z,100.00
2019-01-03T21:05:42.305Z,100.00
2019-01-03T21:08:45.887Z,100.00
2019-01-03T21:11:49.387Z,100.00
2019-01-03T21:14:52.814Z,100.00
2019-01-03T21:17:57.345Z,100.00
2019-01-03T21:21:01.108Z,100.00
2019-01-03T21:24:04.557Z,100.00
2019-01-03T21:27:08.243Z,100.00
2019-01-03T21:30:17.194Z,100.00
2019-01-03T21:33:20.708Z,100.00
2019-01-03T21:36:24.316Z,100.00
2019-01-03T21:39:27.810Z,100.00
2019-01-03T21:42:31.296Z,100.00
2019-01-03T21:45:34.902Z,100.00
2019-01-03T21:48:38.393Z,100.00
2019-01-03T21:51:42.003Z,100.00
2019-01-03T21:54:45.521Z,100.00
2019-01-03T21:57:49.099Z,100.00
2019-01-03T22:00:52.585Z,100.00
2019-01-03T22:03:56.114Z,100.00
2019-01-03T22:06:59.530Z,100.00
2019-01-03T22:10:04.653Z,100.00
2019-01-03T22:13:08.057Z,100.00
2019-01-03T22:16:11.463Z,100.00
2019-01-03T22:19:14.884Z,100.00
2019-01-03T22:22:18.454Z,100.00
2019-01-03T22:25:22.082Z,100.00
2019-01-03T22:28:25.734Z,100.00
2019-01-03T22:31:29.336Z,100.00
2019-01-03T22:34:32.855Z,100.00
2019-01-03T22:37:36.449Z,100.00
2019-01-03T22:40:39.997Z,100.00
2019-01-03T22:43:43.479Z,100.00
2019-01-03T22:46:46.877Z,100.00
2019-01-03T22:49:50.791Z,100.00
2019-01-03T22:52:54.393Z,100.00
2019-01-03T22:55:57.797Z,100.00
2019-01-03T22:59:02.423Z,100.00
2019-01-03T23:02:05.985Z,100.00
2019-01-03T23:05:09.540Z,100.00
2019-01-03T23:08:12.978Z,100.00
2019-01-03T23:11:16.536Z,100.00
2019-01-03T23:14:20.134Z,100.00
2019-01-03T23:17:23.620Z,100.00
2019-01-03T23:20:27.131Z,100.00
2019-01-03T23:23:30.646Z,100.00
2019-01-03T23:26:34.149Z,100.00
2019-01-03T23:29:37.543Z,100.00
2019-01-03T23:32:41.064Z,100.00
2019-01-03T23:35:44.550Z,100.00
2019-01-03T23:38:47.954Z,100.00
2019-01-03T23:41:51.465Z,100.00
2019-01-03T23:45:05.809Z,100.00
2019-01-03T23:48:09.240Z,100.00
2019-01-03T23:51:12.618Z,100.00
2019-01-03T23:54:16.190Z,100.00
2019-01-03T23:57:19.714Z,100.00
